sensor_id;sensor_type;location;lat;lon;timestamp;P1;durP1;ratioP1;P2;durP2;ratioP2
60614;SDS011;46444;45.590;5.284;2023-05-10T00:01:36;40.22;;;37.88;;
60614;SDS011;46444;45.590;5.284;2023-05-10T00:06:53;29.13;;;27.48;;
60614;SDS011;46444;45.590;5.284;2023-05-10T00:10:11;38.45;;;35.83;;
60614;SDS011;46444;45.590;5.284;2023-05-10T00:16:33;27.83;;;26.27;;
60614;SDS011;46444;45.590;5.284;2023-05-10T00:19:37;30.35;;;28.80;;
60614;SDS011;46444;45.590;5.284;2023-05-10T00:22:21;40.33;;;38.17;;
60614;SDS011;46444;45.590;5.284;2023-05-10T00:28:21;51.97;;;49.28;;
60614;SDS011;46444;45.590;5.284;2023-05-10T00:30:53;80.25;;;76.40;;
60614;SDS011;46444;45.590;5.284;2023-05-10T00:41:14;32.13;;;30.05;;
60614;SDS011;46444;45.590;5.284;2023-05-10T00:44:00;58.17;;;54.83;;
60614;SDS011;46444;45.590;5.284;2023-05-10T00:46:56;66.15;;;62.75;;
60614;SDS011;46444;45.590;5.284;2023-05-10T00:49:26;59.95;;;56.80;;
60614;SDS011;46444;45.590;5.284;2023-05-10T00:52:14;67.05;;;63.88;;
60614;SDS011;46444;45.590;5.284;2023-05-10T00:58:15;66.80;;;63.40;;
60614;SDS011;46444;45.590;5.284;2023-05-10T01:01:15;56.70;;;53.78;;
60614;SDS011;46444;45.590;5.284;2023-05-10T01:03:53;93.22;;;88.50;;
60614;SDS011;46444;45.590;5.284;2023-05-10T01:06:44;85.90;;;81.63;;
60614;SDS011;46444;45.590;5.284;2023-05-10T01:09:29;82.05;;;77.80;;
60614;SDS011;46444;45.590;5.284;2023-05-10T01:12:50;120.80;;;114.80;;
60614;SDS011;46444;45.590;5.284;2023-05-10T01:15:59;102.32;;;97.43;;
60614;SDS011;46444;45.590;5.284;2023-05-10T01:18:47;112.45;;;106.97;;
60614;SDS011;46444;45.590;5.284;2023-05-10T01:28:48;98.57;;;93.75;;
60614;SDS011;46444;45.590;5.284;2023-05-10T01:49:19;107.30;;;102.18;;
60614;SDS011;46444;45.590;5.284;2023-05-10T02:03:20;77.05;;;73.13;;
60614;SDS011;46444;45.590;5.284;2023-05-10T02:06:38;96.07;;;91.55;;
60614;SDS011;46444;45.590;5.284;2023-05-10T02:09:40;125.38;;;119.28;;
60614;SDS011;46444;45.590;5.284;2023-05-10T02:23:42;76.80;;;73.10;;
60614;SDS011;46444;45.590;5.284;2023-05-10T02:30:32;67.18;;;63.83;;
60614;SDS011;46444;45.590;5.284;2023-05-10T02:33:20;87.07;;;82.88;;
60614;SDS011;46444;45.590;5.284;2023-05-10T02:36:01;102.22;;;97.30;;
60614;SDS011;46444;45.590;5.284;2023-05-10T02:38:30;103.25;;;98.45;;
60614;SDS011;46444;45.590;5.284;2023-05-10T02:40:58;103.43;;;98.47;;
60614;SDS011;46444;45.590;5.284;2023-05-10T02:43:25;118.43;;;112.57;;
60614;SDS011;46444;45.590;5.284;2023-05-10T02:45:52;106.85;;;101.75;;
60614;SDS011;46444;45.590;5.284;2023-05-10T02:48:19;112.65;;;107.05;;
60614;SDS011;46444;45.590;5.284;2023-05-10T02:50:50;127.55;;;121.43;;
60614;SDS011;46444;45.590;5.284;2023-05-10T02:53:38;98.27;;;93.43;;
60614;SDS011;46444;45.590;5.284;2023-05-10T02:56:31;107.45;;;101.90;;
60614;SDS011;46444;45.590;5.284;2023-05-10T02:59:04;112.28;;;106.78;;
60614;SDS011;46444;45.590;5.284;2023-05-10T03:01:34;114.40;;;109.13;;
60614;SDS011;46444;45.590;5.284;2023-05-10T03:04:02;123.35;;;117.10;;
60614;SDS011;46444;45.590;5.284;2023-05-10T03:06:40;117.90;;;112.13;;
60614;SDS011;46444;45.590;5.284;2023-05-10T03:09:09;107.88;;;102.55;;
60614;SDS011;46444;45.590;5.284;2023-05-10T03:11:55;118.68;;;112.90;;
60614;SDS011;46444;45.590;5.284;2023-05-10T03:17:06;103.55;;;98.65;;
60614;SDS011;46444;45.590;5.284;2023-05-10T03:19:53;101.22;;;96.43;;
60614;SDS011;46444;45.590;5.284;2023-05-10T03:22:25;98.50;;;93.78;;
60614;SDS011;46444;45.590;5.284;2023-05-10T03:25:04;96.45;;;91.82;;
60614;SDS011;46444;45.590;5.284;2023-05-10T03:27:36;91.43;;;87.05;;
60614;SDS011;46444;45.590;5.284;2023-05-10T03:30:10;90.50;;;85.72;;
60614;SDS011;46444;45.590;5.284;2023-05-10T03:32:38;89.20;;;84.95;;
60614;SDS011;46444;45.590;5.284;2023-05-10T03:35:08;92.57;;;88.15;;
60614;SDS011;46444;45.590;5.284;2023-05-10T03:37:38;89.22;;;84.65;;
60614;SDS011;46444;45.590;5.284;2023-05-10T03:40:04;89.45;;;85.05;;
60614;SDS011;46444;45.590;5.284;2023-05-10T03:42:32;86.05;;;81.68;;
60614;SDS011;46444;45.590;5.284;2023-05-10T03:45:01;102.68;;;97.75;;
60614;SDS011;46444;45.590;5.284;2023-05-10T03:47:32;99.28;;;94.50;;
60614;SDS011;46444;45.590;5.284;2023-05-10T03:50:00;104.47;;;99.40;;
60614;SDS011;46444;45.590;5.284;2023-05-10T03:52:53;107.65;;;102.38;;
60614;SDS011;46444;45.590;5.284;2023-05-10T03:55:38;102.60;;;97.80;;
60614;SDS011;46444;45.590;5.284;2023-05-10T03:59:08;104.30;;;99.47;;
60614;SDS011;46444;45.590;5.284;2023-05-10T04:02:37;111.07;;;105.82;;
60614;SDS011;46444;45.590;5.284;2023-05-10T04:05:20;99.03;;;94.03;;
60614;SDS011;46444;45.590;5.284;2023-05-10T04:08:03;112.88;;;107.63;;
60614;SDS011;46444;45.590;5.284;2023-05-10T04:10:39;111.00;;;105.35;;
60614;SDS011;46444;45.590;5.284;2023-05-10T04:13:09;103.47;;;98.50;;
60614;SDS011;46444;45.590;5.284;2023-05-10T04:15:44;104.60;;;99.70;;
60614;SDS011;46444;45.590;5.284;2023-05-10T04:18:43;97.17;;;92.63;;
60614;SDS011;46444;45.590;5.284;2023-05-10T04:27:24;83.88;;;79.75;;
60614;SDS011;46444;45.590;5.284;2023-05-10T04:30:11;54.87;;;52.27;;
60614;SDS011;46444;45.590;5.284;2023-05-10T04:36:47;51.75;;;49.15;;
60614;SDS011;46444;45.590;5.284;2023-05-10T04:39:53;31.67;;;29.98;;
60614;SDS011;46444;45.590;5.284;2023-05-10T04:42:50;60.75;;;57.83;;
60614;SDS011;46444;45.590;5.284;2023-05-10T04:48:57;43.17;;;41.03;;
60614;SDS011;46444;45.590;5.284;2023-05-10T04:55:08;34.20;;;32.40;;
60614;SDS011;46444;45.590;5.284;2023-05-10T05:32:24;15.80;;;14.50;;
60614;SDS011;46444;45.590;5.284;2023-05-10T05:35:42;19.48;;;18.15;;
60614;SDS011;46444;45.590;5.284;2023-05-10T05:38:12;28.33;;;26.42;;
60614;SDS011;46444;45.590;5.284;2023-05-10T05:40:37;16.73;;;15.45;;
60614;SDS011;46444;45.590;5.284;2023-05-10T05:43:03;16.60;;;14.48;;
60614;SDS011;46444;45.590;5.284;2023-05-10T05:45:28;17.80;;;16.17;;
60614;SDS011;46444;45.590;5.284;2023-05-10T05:47:53;32.10;;;30.02;;
60614;SDS011;46444;45.590;5.284;2023-05-10T05:50:19;25.13;;;23.52;;
60614;SDS011;46444;45.590;5.284;2023-05-10T05:52:44;49.53;;;46.88;;
60614;SDS011;46444;45.590;5.284;2023-05-10T05:55:10;23.58;;;22.15;;
60614;SDS011;46444;45.590;5.284;2023-05-10T05:57:35;34.05;;;31.83;;
60614;SDS011;46444;45.590;5.284;2023-05-10T06:30:55;32.63;;;30.60;;
60614;SDS011;46444;45.590;5.284;2023-05-10T07:20:45;14.05;;;4.28;;
60614;SDS011;46444;45.590;5.284;2023-05-10T07:23:40;7.07;;;3.67;;
60614;SDS011;46444;45.590;5.284;2023-05-10T07:26:40;7.68;;;3.28;;
60614;SDS011;46444;45.590;5.284;2023-05-10T07:29:06;8.32;;;3.65;;
60614;SDS011;46444;45.590;5.284;2023-05-10T07:31:32;7.88;;;3.10;;
60614;SDS011;46444;45.590;5.284;2023-05-10T07:34:01;8.63;;;3.83;;
60614;SDS011;46444;45.590;5.284;2023-05-10T07:37:23;8.40;;;3.70;;
60614;SDS011;46444;45.590;5.284;2023-05-10T07:40:57;7.60;;;3.25;;
60614;SDS011;46444;45.590;5.284;2023-05-10T07:43:23;9.45;;;3.22;;
60614;SDS011;46444;45.590;5.284;2023-05-10T15:30:49;2.80;;;2.30;;
60614;SDS011;46444;45.590;5.284;2023-05-10T15:33:15;5.80;;;2.60;;
60614;SDS011;46444;45.590;5.284;2023-05-10T15:35:40;6.53;;;2.42;;
60614;SDS011;46444;45.590;5.284;2023-05-10T15:38:05;9.35;;;2.80;;
60614;SDS011;46444;45.590;5.284;2023-05-10T15:40:32;4.22;;;2.53;;
60614;SDS011;46444;45.590;5.284;2023-05-10T15:42:57;5.32;;;2.15;;
60614;SDS011;46444;45.590;5.284;2023-05-10T15:45:22;3.80;;;1.27;;
60614;SDS011;46444;45.590;5.284;2023-05-10T15:47:48;2.83;;;1.00;;
60614;SDS011;46444;45.590;5.284;2023-05-10T15:50:14;25.92;;;2.58;;
60614;SDS011;46444;45.590;5.284;2023-05-10T15:52:40;96.82;;;6.57;;
60614;SDS011;46444;45.590;5.284;2023-05-10T15:55:06;4.13;;;1.17;;
60614;SDS011;46444;45.590;5.284;2023-05-10T16:00:06;4.47;;;1.85;;
60614;SDS011;46444;45.590;5.284;2023-05-10T16:02:35;3.08;;;1.77;;
60614;SDS011;46444;45.590;5.284;2023-05-10T16:05:01;5.82;;;2.20;;
60614;SDS011;46444;45.590;5.284;2023-05-10T16:07:26;5.05;;;1.77;;
60614;SDS011;46444;45.590;5.284;2023-05-10T16:09:52;3.42;;;1.88;;
60614;SDS011;46444;45.590;5.284;2023-05-10T16:12:17;4.85;;;1.88;;
60614;SDS011;46444;45.590;5.284;2023-05-10T16:14:43;3.95;;;1.85;;
60614;SDS011;46444;45.590;5.284;2023-05-10T16:17:08;5.03;;;2.17;;
60614;SDS011;46444;45.590;5.284;2023-05-10T16:19:33;4.47;;;1.90;;
60614;SDS011;46444;45.590;5.284;2023-05-10T16:21:59;4.88;;;1.80;;
60614;SDS011;46444;45.590;5.284;2023-05-10T16:24:24;6.82;;;1.60;;
60614;SDS011;46444;45.590;5.284;2023-05-10T16:26:50;4.55;;;1.95;;
60614;SDS011;46444;45.590;5.284;2023-05-10T16:29:16;2.83;;;1.70;;
60614;SDS011;46444;45.590;5.284;2023-05-10T16:31:41;4.30;;;1.75;;
60614;SDS011;46444;45.590;5.284;2023-05-10T16:34:06;8.77;;;1.92;;
60614;SDS011;46444;45.590;5.284;2023-05-10T16:36:32;4.93;;;1.60;;
60614;SDS011;46444;45.590;5.284;2023-05-10T16:38:57;3.17;;;1.60;;
60614;SDS011;46444;45.590;5.284;2023-05-10T16:41:23;3.30;;;1.70;;
60614;SDS011;46444;45.590;5.284;2023-05-10T16:43:48;4.43;;;1.67;;
60614;SDS011;46444;45.590;5.284;2023-05-10T16:46:14;2.95;;;1.80;;
60614;SDS011;46444;45.590;5.284;2023-05-10T16:48:40;4.93;;;1.20;;
60614;SDS011;46444;45.590;5.284;2023-05-10T16:51:05;2.58;;;1.30;;
60614;SDS011;46444;45.590;5.284;2023-05-10T16:53:32;4.00;;;1.70;;
60614;SDS011;46444;45.590;5.284;2023-05-10T16:55:58;3.92;;;1.17;;
60614;SDS011;46444;45.590;5.284;2023-05-10T16:58:24;9.00;;;1.25;;
60614;SDS011;46444;45.590;5.284;2023-05-10T17:00:49;3.40;;;1.30;;
60614;SDS011;46444;45.590;5.284;2023-05-10T17:03:14;4.45;;;1.20;;
60614;SDS011;46444;45.590;5.284;2023-05-10T17:05:40;3.77;;;1.10;;
60614;SDS011;46444;45.590;5.284;2023-05-10T17:08:06;4.47;;;1.20;;
60614;SDS011;46444;45.590;5.284;2023-05-10T17:10:31;4.93;;;1.42;;
60614;SDS011;46444;45.590;5.284;2023-05-10T17:12:57;3.85;;;1.15;;
60614;SDS011;46444;45.590;5.284;2023-05-10T17:15:22;4.77;;;1.20;;
60614;SDS011;46444;45.590;5.284;2023-05-10T17:17:47;5.72;;;1.40;;
60614;SDS011;46444;45.590;5.284;2023-05-10T17:20:13;3.33;;;1.00;;
60614;SDS011;46444;45.590;5.284;2023-05-10T17:22:38;3.95;;;0.93;;
60614;SDS011;46444;45.590;5.284;2023-05-10T17:25:03;4.15;;;1.08;;
60614;SDS011;46444;45.590;5.284;2023-05-10T17:27:29;3.42;;;1.08;;
60614;SDS011;46444;45.590;5.284;2023-05-10T17:29:58;5.38;;;1.33;;
60614;SDS011;46444;45.590;5.284;2023-05-10T17:32:23;3.22;;;1.02;;
60614;SDS011;46444;45.590;5.284;2023-05-10T17:34:49;3.80;;;1.10;;
60614;SDS011;46444;45.590;5.284;2023-05-10T17:37:14;4.10;;;1.33;;
60614;SDS011;46444;45.590;5.284;2023-05-10T17:39:40;4.70;;;1.48;;
60614;SDS011;46444;45.590;5.284;2023-05-10T17:42:05;5.85;;;1.20;;
60614;SDS011;46444;45.590;5.284;2023-05-10T17:44:31;4.22;;;1.00;;
60614;SDS011;46444;45.590;5.284;2023-05-10T17:46:56;4.10;;;0.90;;
60614;SDS011;46444;45.590;5.284;2023-05-10T17:49:22;3.15;;;1.10;;
60614;SDS011;46444;45.590;5.284;2023-05-10T17:51:48;1.88;;;0.93;;
60614;SDS011;46444;45.590;5.284;2023-05-10T17:54:14;6.53;;;1.40;;
60614;SDS011;46444;45.590;5.284;2023-05-10T17:56:39;3.88;;;1.08;;
60614;SDS011;46444;45.590;5.284;2023-05-10T17:59:05;4.20;;;0.90;;
60614;SDS011;46444;45.590;5.284;2023-05-10T18:01:31;3.80;;;1.10;;
60614;SDS011;46444;45.590;5.284;2023-05-10T18:03:56;4.90;;;1.55;;
60614;SDS011;46444;45.590;5.284;2023-05-10T18:06:22;4.93;;;1.20;;
60614;SDS011;46444;45.590;5.284;2023-05-10T18:08:47;5.10;;;1.17;;
60614;SDS011;46444;45.590;5.284;2023-05-10T18:11:15;3.58;;;0.98;;
60614;SDS011;46444;45.590;5.284;2023-05-10T18:13:41;3.95;;;1.08;;
60614;SDS011;46444;45.590;5.284;2023-05-10T18:16:06;3.53;;;1.10;;
60614;SDS011;46444;45.590;5.284;2023-05-10T18:18:37;4.25;;;1.38;;
60614;SDS011;46444;45.590;5.284;2023-05-10T18:21:03;4.20;;;1.25;;
60614;SDS011;46444;45.590;5.284;2023-05-10T18:23:28;3.50;;;1.40;;
60614;SDS011;46444;45.590;5.284;2023-05-10T18:34:21;5.68;;;1.25;;
60614;SDS011;46444;45.590;5.284;2023-05-10T18:36:46;3.55;;;0.95;;
60614;SDS011;46444;45.590;5.284;2023-05-10T18:39:11;5.50;;;1.30;;
60614;SDS011;46444;45.590;5.284;2023-05-10T18:41:37;3.90;;;1.10;;
60614;SDS011;46444;45.590;5.284;2023-05-10T18:44:02;3.85;;;1.35;;
60614;SDS011;46444;45.590;5.284;2023-05-10T18:46:28;6.18;;;1.10;;
60614;SDS011;46444;45.590;5.284;2023-05-10T18:48:54;4.25;;;1.30;;
60614;SDS011;46444;45.590;5.284;2023-05-10T18:51:19;6.53;;;1.60;;
60614;SDS011;46444;45.590;5.284;2023-05-10T18:53:46;6.13;;;1.45;;
60614;SDS011;46444;45.590;5.284;2023-05-10T18:56:11;4.95;;;1.30;;
60614;SDS011;46444;45.590;5.284;2023-05-10T18:58:37;4.03;;;1.30;;
60614;SDS011;46444;45.590;5.284;2023-05-10T19:01:02;4.90;;;1.30;;
60614;SDS011;46444;45.590;5.284;2023-05-10T19:03:28;3.53;;;1.25;;
60614;SDS011;46444;45.590;5.284;2023-05-10T19:05:54;5.47;;;1.38;;
60614;SDS011;46444;45.590;5.284;2023-05-10T19:08:20;5.20;;;1.20;;
60614;SDS011;46444;45.590;5.284;2023-05-10T19:10:46;9.68;;;1.60;;
60614;SDS011;46444;45.590;5.284;2023-05-10T19:13:11;3.45;;;1.35;;
60614;SDS011;46444;45.590;5.284;2023-05-10T19:15:38;5.95;;;1.50;;
60614;SDS011;46444;45.590;5.284;2023-05-10T19:18:04;5.43;;;2.40;;
60614;SDS011;46444;45.590;5.284;2023-05-10T19:20:29;9.40;;;2.22;;
60614;SDS011;46444;45.590;5.284;2023-05-10T19:22:55;3.78;;;1.98;;
60614;SDS011;46444;45.590;5.284;2023-05-10T19:25:20;4.28;;;1.92;;
60614;SDS011;46444;45.590;5.284;2023-05-10T19:27:46;6.18;;;1.77;;
60614;SDS011;46444;45.590;5.284;2023-05-10T19:30:12;4.95;;;1.50;;
60614;SDS011;46444;45.590;5.284;2023-05-10T19:32:37;4.22;;;1.77;;
60614;SDS011;46444;45.590;5.284;2023-05-10T19:35:03;7.50;;;2.00;;
60614;SDS011;46444;45.590;5.284;2023-05-10T19:37:28;4.68;;;1.70;;
60614;SDS011;46444;45.590;5.284;2023-05-10T19:39:53;7.68;;;2.00;;
60614;SDS011;46444;45.590;5.284;2023-05-10T19:42:19;5.78;;;2.70;;
60614;SDS011;46444;45.590;5.284;2023-05-10T19:44:44;5.78;;;2.65;;
60614;SDS011;46444;45.590;5.284;2023-05-10T19:47:10;6.20;;;3.08;;
60614;SDS011;46444;45.590;5.284;2023-05-10T19:49:36;5.03;;;3.13;;
60614;SDS011;46444;45.590;5.284;2023-05-10T19:52:02;6.25;;;2.42;;
60614;SDS011;46444;45.590;5.284;2023-05-10T19:54:28;5.03;;;2.20;;
60614;SDS011;46444;45.590;5.284;2023-05-10T19:56:53;7.10;;;2.95;;
60614;SDS011;46444;45.590;5.284;2023-05-10T19:59:23;7.18;;;3.70;;
60614;SDS011;46444;45.590;5.284;2023-05-10T20:01:53;8.85;;;3.42;;
60614;SDS011;46444;45.590;5.284;2023-05-10T20:04:43;8.68;;;3.30;;
60614;SDS011;46444;45.590;5.284;2023-05-10T20:07:21;8.82;;;3.63;;
60614;SDS011;46444;45.590;5.284;2023-05-10T20:10:28;6.47;;;3.90;;
60614;SDS011;46444;45.590;5.284;2023-05-10T22:32:58;6.15;;;4.63;;
60614;SDS011;46444;45.590;5.284;2023-05-10T22:36:23;6.75;;;3.28;;
60614;SDS011;46444;45.590;5.284;2023-05-10T22:50:15;8.05;;;4.20;;
60614;SDS011;46444;45.590;5.284;2023-05-10T23:00:51;6.28;;;4.00;;
60614;SDS011;46444;45.590;5.284;2023-05-10T23:07:07;6.22;;;5.63;;
60614;SDS011;46444;45.590;5.284;2023-05-10T23:10:13;7.38;;;4.55;;
60614;SDS011;46444;45.590;5.284;2023-05-10T23:13:24;7.35;;;6.25;;
60614;SDS011;46444;45.590;5.284;2023-05-10T23:16:14;5.38;;;4.68;;
60614;SDS011;46444;45.590;5.284;2023-05-10T23:19:06;6.75;;;5.95;;
60614;SDS011;46444;45.590;5.284;2023-05-10T23:22:11;6.03;;;4.70;;
60614;SDS011;46444;45.590;5.284;2023-05-10T23:25:38;8.50;;;5.60;;
60614;SDS011;46444;45.590;5.284;2023-05-10T23:32:02;6.70;;;6.00;;
60614;SDS011;46444;45.590;5.284;2023-05-10T23:37:54;4.38;;;3.72;;
60614;SDS011;46444;45.590;5.284;2023-05-10T23:40:32;7.47;;;6.18;;
60614;SDS011;46444;45.590;5.284;2023-05-10T23:53:37;5.35;;;4.63;;
60614;SDS011;46444;45.590;5.284;2023-05-10T23:56:51;5.07;;;4.13;;
